sensor_id;sensor_type;location;lat;lon;timestamp;P1;durP1;ratioP1;P2;durP2;ratioP2
39788;SDS011;25478;42.626;23.320;2023-03-16T00:00:51;4.07;;;1.83;;
39788;SDS011;25478;42.626;23.320;2023-03-16T00:03:17;4.30;;;2.00;;
39788;SDS011;25478;42.626;23.320;2023-03-16T00:05:48;2.97;;;1.70;;
39788;SDS011;25478;42.626;23.320;2023-03-16T00:08:15;3.53;;;1.73;;
39788;SDS011;25478;42.626;23.320;2023-03-16T00:10:41;2.57;;;1.40;;
39788;SDS011;25478;42.626;23.320;2023-03-16T00:13:16;2.73;;;1.80;;
39788;SDS011;25478;42.626;23.320;2023-03-16T00:15:49;3.30;;;1.47;;
39788;SDS011;25478;42.626;23.320;2023-03-16T00:18:17;2.72;;;1.13;;
39788;SDS011;25478;42.626;23.320;2023-03-16T00:20:42;2.43;;;1.27;;
39788;SDS011;25478;42.626;23.320;2023-03-16T00:23:08;2.03;;;1.10;;
39788;SDS011;25478;42.626;23.320;2023-03-16T00:25:33;1.93;;;1.20;;
39788;SDS011;25478;42.626;23.320;2023-03-16T00:27:59;3.57;;;1.30;;
39788;SDS011;25478;42.626;23.320;2023-03-16T00:30:28;3.43;;;1.50;;
39788;SDS011;25478;42.626;23.320;2023-03-16T00:32:55;3.40;;;1.53;;
39788;SDS011;25478;42.626;23.320;2023-03-16T00:35:21;4.40;;;1.67;;
39788;SDS011;25478;42.626;23.320;2023-03-16T00:37:46;3.47;;;1.70;;
39788;SDS011;25478;42.626;23.320;2023-03-16T00:40:12;3.17;;;1.43;;
39788;SDS011;25478;42.626;23.320;2023-03-16T00:42:38;3.63;;;2.00;;
39788;SDS011;25478;42.626;23.320;2023-03-16T00:45:03;4.30;;;1.80;;
39788;SDS011;25478;42.626;23.320;2023-03-16T00:47:30;4.10;;;1.97;;
39788;SDS011;25478;42.626;23.320;2023-03-16T00:49:58;3.63;;;1.83;;
39788;SDS011;25478;42.626;23.320;2023-03-16T00:52:25;3.23;;;1.83;;
39788;SDS011;25478;42.626;23.320;2023-03-16T00:54:52;4.00;;;1.80;;
39788;SDS011;25478;42.626;23.320;2023-03-16T00:57:20;2.13;;;1.23;;
39788;SDS011;25478;42.626;23.320;2023-03-16T00:59:47;2.10;;;1.33;;
39788;SDS011;25478;42.626;23.320;2023-03-16T01:02:14;3.53;;;1.70;;
39788;SDS011;25478;42.626;23.320;2023-03-16T01:04:41;2.60;;;1.60;;
39788;SDS011;25478;42.626;23.320;2023-03-16T01:07:08;2.20;;;1.37;;
39788;SDS011;25478;42.626;23.320;2023-03-16T01:09:37;3.03;;;1.57;;
39788;SDS011;25478;42.626;23.320;2023-03-16T01:12:03;1.47;;;1.10;;
39788;SDS011;25478;42.626;23.320;2023-03-16T01:14:30;1.80;;;1.10;;
39788;SDS011;25478;42.626;23.320;2023-03-16T01:16:57;2.17;;;1.23;;
39788;SDS011;25478;42.626;23.320;2023-03-16T01:19:22;2.20;;;1.30;;
39788;SDS011;25478;42.626;23.320;2023-03-16T01:21:48;2.23;;;1.30;;
39788;SDS011;25478;42.626;23.320;2023-03-16T01:24:13;2.20;;;1.10;;
39788;SDS011;25478;42.626;23.320;2023-03-16T01:26:39;1.57;;;1.00;;
39788;SDS011;25478;42.626;23.320;2023-03-16T01:29:05;1.83;;;1.10;;
39788;SDS011;25478;42.626;23.320;2023-03-16T01:31:30;1.07;;;0.90;;
39788;SDS011;25478;42.626;23.320;2023-03-16T01:33:56;1.83;;;1.07;;
39788;SDS011;25478;42.626;23.320;2023-03-16T01:36:25;1.70;;;1.10;;
39788;SDS011;25478;42.626;23.320;2023-03-16T01:41:30;2.27;;;1.30;;
39788;SDS011;25478;42.626;23.320;2023-03-16T01:43:55;2.57;;;1.30;;
39788;SDS011;25478;42.626;23.320;2023-03-16T01:46:26;2.00;;;1.00;;
39788;SDS011;25478;42.626;23.320;2023-03-16T01:49:01;2.30;;;1.30;;
39788;SDS011;25478;42.626;23.320;2023-03-16T01:51:45;3.13;;;1.70;;
39788;SDS011;25478;42.626;23.320;2023-03-16T01:56:50;1.77;;;1.00;;
39788;SDS011;25478;42.626;23.320;2023-03-16T01:59:23;3.10;;;1.23;;
39788;SDS011;25478;42.626;23.320;2023-03-16T02:01:51;2.83;;;1.37;;
39788;SDS011;25478;42.626;23.320;2023-03-16T02:04:25;2.37;;;1.20;;
39788;SDS011;25478;42.626;23.320;2023-03-16T02:07:01;1.97;;;1.10;;
39788;SDS011;25478;42.626;23.320;2023-03-16T02:09:29;2.93;;;1.20;;
39788;SDS011;25478;42.626;23.320;2023-03-16T02:11:56;1.63;;;1.00;;
39788;SDS011;25478;42.626;23.320;2023-03-16T02:14:24;2.73;;;1.50;;
39788;SDS011;25478;42.626;23.320;2023-03-16T02:16:49;1.67;;;0.90;;
39788;SDS011;25478;42.626;23.320;2023-03-16T02:19:19;2.47;;;1.03;;
39788;SDS011;25478;42.626;23.320;2023-03-16T02:22:01;0.90;;;0.90;;
39788;SDS011;25478;42.626;23.320;2023-03-16T02:24:31;1.13;;;0.80;;
39788;SDS011;25478;42.626;23.320;2023-03-16T02:26:58;1.47;;;0.90;;
39788;SDS011;25478;42.626;23.320;2023-03-16T02:34:34;2.97;;;1.20;;
39788;SDS011;25478;42.626;23.320;2023-03-16T02:37:00;1.33;;;0.90;;
39788;SDS011;25478;42.626;23.320;2023-03-16T02:39:27;1.70;;;0.90;;
39788;SDS011;25478;42.626;23.320;2023-03-16T02:41:53;1.93;;;1.00;;
39788;SDS011;25478;42.626;23.320;2023-03-16T02:44:23;3.23;;;1.40;;
39788;SDS011;25478;42.626;23.320;2023-03-16T02:46:53;1.70;;;1.00;;
39788;SDS011;25478;42.626;23.320;2023-03-16T02:49:33;1.43;;;0.70;;
39788;SDS011;25478;42.626;23.320;2023-03-16T02:52:03;2.17;;;1.23;;
39788;SDS011;25478;42.626;23.320;2023-03-16T02:54:30;1.40;;;1.00;;
39788;SDS011;25478;42.626;23.320;2023-03-16T02:56:56;3.17;;;1.37;;
39788;SDS011;25478;42.626;23.320;2023-03-16T02:59:22;5.10;;;1.83;;
39788;SDS011;25478;42.626;23.320;2023-03-16T03:01:48;2.33;;;1.40;;
39788;SDS011;25478;42.626;23.320;2023-03-16T03:04:14;3.37;;;1.33;;
39788;SDS011;25478;42.626;23.320;2023-03-16T03:06:40;1.37;;;0.83;;
39788;SDS011;25478;42.626;23.320;2023-03-16T03:09:06;1.60;;;0.83;;
39788;SDS011;25478;42.626;23.320;2023-03-16T03:11:32;3.83;;;1.30;;
39788;SDS011;25478;42.626;23.320;2023-03-16T03:13:58;1.87;;;0.90;;
39788;SDS011;25478;42.626;23.320;2023-03-16T03:16:26;1.67;;;1.00;;
39788;SDS011;25478;42.626;23.320;2023-03-16T03:18:53;0.70;;;0.70;;
39788;SDS011;25478;42.626;23.320;2023-03-16T03:21:19;0.97;;;0.70;;
39788;SDS011;25478;42.626;23.320;2023-03-16T03:23:45;1.30;;;0.70;;
39788;SDS011;25478;42.626;23.320;2023-03-16T03:26:11;1.10;;;0.70;;
39788;SDS011;25478;42.626;23.320;2023-03-16T03:28:39;0.80;;;0.70;;
39788;SDS011;25478;42.626;23.320;2023-03-16T03:31:06;0.83;;;0.77;;
39788;SDS011;25478;42.626;23.320;2023-03-16T03:33:36;1.50;;;0.80;;
39788;SDS011;25478;42.626;23.320;2023-03-16T03:36:02;1.73;;;0.93;;
39788;SDS011;25478;42.626;23.320;2023-03-16T03:38:33;1.67;;;0.80;;
39788;SDS011;25478;42.626;23.320;2023-03-16T03:40:58;1.57;;;0.90;;
39788;SDS011;25478;42.626;23.320;2023-03-16T03:43:27;1.37;;;1.00;;
39788;SDS011;25478;42.626;23.320;2023-03-16T03:45:56;2.10;;;0.90;;
39788;SDS011;25478;42.626;23.320;2023-03-16T03:48:22;1.37;;;0.90;;
39788;SDS011;25478;42.626;23.320;2023-03-16T03:50:48;1.03;;;0.77;;
39788;SDS011;25478;42.626;23.320;2023-03-16T03:53:33;1.60;;;0.90;;
39788;SDS011;25478;42.626;23.320;2023-03-16T03:56:19;2.53;;;1.20;;
39788;SDS011;25478;42.626;23.320;2023-03-16T03:58:45;1.00;;;0.70;;
39788;SDS011;25478;42.626;23.320;2023-03-16T04:01:14;1.23;;;0.80;;
39788;SDS011;25478;42.626;23.320;2023-03-16T04:03:40;0.87;;;0.57;;
39788;SDS011;25478;42.626;23.320;2023-03-16T04:06:06;1.23;;;0.70;;
39788;SDS011;25478;42.626;23.320;2023-03-16T04:08:32;2.93;;;1.47;;
39788;SDS011;25478;42.626;23.320;2023-03-16T04:10:58;6.87;;;3.10;;
39788;SDS011;25478;42.626;23.320;2023-03-16T04:13:25;2.63;;;1.60;;
39788;SDS011;25478;42.626;23.320;2023-03-16T04:15:57;1.60;;;1.07;;
39788;SDS011;25478;42.626;23.320;2023-03-16T04:18:27;2.87;;;1.37;;
39788;SDS011;25478;42.626;23.320;2023-03-16T04:20:53;1.03;;;0.90;;
39788;SDS011;25478;42.626;23.320;2023-03-16T04:23:21;2.60;;;1.63;;
39788;SDS011;25478;42.626;23.320;2023-03-16T04:25:49;1.90;;;0.87;;
39788;SDS011;25478;42.626;23.320;2023-03-16T04:28:18;0.87;;;0.70;;
39788;SDS011;25478;42.626;23.320;2023-03-16T04:30:48;3.63;;;0.90;;
39788;SDS011;25478;42.626;23.320;2023-03-16T04:33:34;0.67;;;0.67;;
39788;SDS011;25478;42.626;23.320;2023-03-16T04:36:00;0.73;;;0.60;;
39788;SDS011;25478;42.626;23.320;2023-03-16T04:38:27;0.83;;;0.70;;
39788;SDS011;25478;42.626;23.320;2023-03-16T04:40:57;0.60;;;0.60;;
39788;SDS011;25478;42.626;23.320;2023-03-16T04:43:27;0.70;;;0.67;;
39788;SDS011;25478;42.626;23.320;2023-03-16T04:46:02;0.97;;;0.60;;
39788;SDS011;25478;42.626;23.320;2023-03-16T04:48:29;1.27;;;0.70;;
39788;SDS011;25478;42.626;23.320;2023-03-16T04:50:56;0.80;;;0.60;;
39788;SDS011;25478;42.626;23.320;2023-03-16T04:53:24;1.03;;;0.80;;
39788;SDS011;25478;42.626;23.320;2023-03-16T04:55:56;1.67;;;0.80;;
39788;SDS011;25478;42.626;23.320;2023-03-16T04:58:23;1.60;;;0.93;;
39788;SDS011;25478;42.626;23.320;2023-03-16T05:00:53;1.20;;;0.70;;
39788;SDS011;25478;42.626;23.320;2023-03-16T05:03:27;1.37;;;0.83;;
39788;SDS011;25478;42.626;23.320;2023-03-16T05:05:52;2.00;;;0.83;;
39788;SDS011;25478;42.626;23.320;2023-03-16T05:08:18;5.23;;;1.77;;
39788;SDS011;25478;42.626;23.320;2023-03-16T05:10:46;4.60;;;2.17;;
39788;SDS011;25478;42.626;23.320;2023-03-16T05:13:13;1.80;;;0.97;;
39788;SDS011;25478;42.626;23.320;2023-03-16T05:15:38;3.33;;;1.40;;
39788;SDS011;25478;42.626;23.320;2023-03-16T05:18:15;1.30;;;0.90;;
39788;SDS011;25478;42.626;23.320;2023-03-16T05:20:41;1.83;;;0.80;;
39788;SDS011;25478;42.626;23.320;2023-03-16T05:23:07;2.23;;;1.13;;
39788;SDS011;25478;42.626;23.320;2023-03-16T05:25:37;1.07;;;0.70;;
39788;SDS011;25478;42.626;23.320;2023-03-16T05:28:05;1.87;;;0.83;;
39788;SDS011;25478;42.626;23.320;2023-03-16T05:30:37;1.20;;;0.73;;
39788;SDS011;25478;42.626;23.320;2023-03-16T05:33:06;0.97;;;0.93;;
39788;SDS011;25478;42.626;23.320;2023-03-16T05:35:32;1.57;;;0.87;;
39788;SDS011;25478;42.626;23.320;2023-03-16T05:38:02;1.63;;;0.97;;
39788;SDS011;25478;42.626;23.320;2023-03-16T05:40:31;2.03;;;0.90;;
39788;SDS011;25478;42.626;23.320;2023-03-16T05:43:10;3.53;;;1.00;;
39788;SDS011;25478;42.626;23.320;2023-03-16T05:45:41;3.23;;;1.33;;
39788;SDS011;25478;42.626;23.320;2023-03-16T05:48:12;2.43;;;1.00;;
39788;SDS011;25478;42.626;23.320;2023-03-16T05:50:43;1.47;;;1.10;;
39788;SDS011;25478;42.626;23.320;2023-03-16T05:53:10;2.00;;;1.20;;
39788;SDS011;25478;42.626;23.320;2023-03-16T05:55:37;3.70;;;1.30;;
39788;SDS011;25478;42.626;23.320;2023-03-16T05:58:05;2.70;;;1.40;;
39788;SDS011;25478;42.626;23.320;2023-03-16T06:00:33;3.37;;;1.80;;
39788;SDS011;25478;42.626;23.320;2023-03-16T06:03:09;3.10;;;1.43;;
39788;SDS011;25478;42.626;23.320;2023-03-16T06:05:36;3.13;;;1.30;;
39788;SDS011;25478;42.626;23.320;2023-03-16T06:08:02;2.50;;;1.30;;
39788;SDS011;25478;42.626;23.320;2023-03-16T06:10:28;2.47;;;1.03;;
39788;SDS011;25478;42.626;23.320;2023-03-16T06:12:54;3.27;;;1.50;;
39788;SDS011;25478;42.626;23.320;2023-03-16T06:15:20;2.97;;;1.50;;
39788;SDS011;25478;42.626;23.320;2023-03-16T06:17:49;2.67;;;1.33;;
39788;SDS011;25478;42.626;23.320;2023-03-16T06:20:15;2.97;;;1.40;;
39788;SDS011;25478;42.626;23.320;2023-03-16T06:22:43;2.93;;;1.27;;
39788;SDS011;25478;42.626;23.320;2023-03-16T06:25:09;2.30;;;1.20;;
39788;SDS011;25478;42.626;23.320;2023-03-16T06:27:37;1.73;;;0.90;;
39788;SDS011;25478;42.626;23.320;2023-03-16T06:30:10;2.67;;;1.40;;
39788;SDS011;25478;42.626;23.320;2023-03-16T06:32:37;4.83;;;2.00;;
39788;SDS011;25478;42.626;23.320;2023-03-16T06:35:06;2.57;;;1.50;;
39788;SDS011;25478;42.626;23.320;2023-03-16T06:37:34;4.77;;;1.97;;
39788;SDS011;25478;42.626;23.320;2023-03-16T06:40:08;4.00;;;1.60;;
39788;SDS011;25478;42.626;23.320;2023-03-16T06:42:34;3.23;;;1.53;;
39788;SDS011;25478;42.626;23.320;2023-03-16T06:45:00;4.10;;;1.57;;
39788;SDS011;25478;42.626;23.320;2023-03-16T06:47:26;3.37;;;1.50;;
39788;SDS011;25478;42.626;23.320;2023-03-16T06:49:52;4.13;;;1.80;;
39788;SDS011;25478;42.626;23.320;2023-03-16T06:52:21;4.27;;;1.93;;
39788;SDS011;25478;42.626;23.320;2023-03-16T06:54:47;3.93;;;1.67;;
39788;SDS011;25478;42.626;23.320;2023-03-16T06:57:14;3.47;;;1.67;;
39788;SDS011;25478;42.626;23.320;2023-03-16T06:59:41;3.93;;;2.00;;
39788;SDS011;25478;42.626;23.320;2023-03-16T07:02:08;2.40;;;1.50;;
39788;SDS011;25478;42.626;23.320;2023-03-16T07:04:37;2.93;;;1.80;;
39788;SDS011;25478;42.626;23.320;2023-03-16T07:07:03;4.30;;;2.10;;
39788;SDS011;25478;42.626;23.320;2023-03-16T07:09:29;5.80;;;2.23;;
39788;SDS011;25478;42.626;23.320;2023-03-16T07:11:54;4.60;;;2.20;;
39788;SDS011;25478;42.626;23.320;2023-03-16T07:14:20;3.13;;;1.60;;
39788;SDS011;25478;42.626;23.320;2023-03-16T07:16:48;2.30;;;1.50;;
39788;SDS011;25478;42.626;23.320;2023-03-16T07:19:15;3.87;;;1.70;;
39788;SDS011;25478;42.626;23.320;2023-03-16T07:21:40;6.23;;;2.40;;
39788;SDS011;25478;42.626;23.320;2023-03-16T07:24:13;2.33;;;1.57;;
39788;SDS011;25478;42.626;23.320;2023-03-16T07:26:40;2.97;;;1.50;;
39788;SDS011;25478;42.626;23.320;2023-03-16T07:29:06;4.20;;;1.40;;
39788;SDS011;25478;42.626;23.320;2023-03-16T07:31:33;2.93;;;1.40;;
39788;SDS011;25478;42.626;23.320;2023-03-16T07:34:02;2.43;;;1.60;;
39788;SDS011;25478;42.626;23.320;2023-03-16T07:36:51;3.17;;;1.70;;
39788;SDS011;25478;42.626;23.320;2023-03-16T07:39:17;3.10;;;1.60;;
39788;SDS011;25478;42.626;23.320;2023-03-16T07:41:44;3.37;;;1.90;;
39788;SDS011;25478;42.626;23.320;2023-03-16T07:44:15;2.80;;;1.70;;
39788;SDS011;25478;42.626;23.320;2023-03-16T07:46:45;3.87;;;1.63;;
39788;SDS011;25478;42.626;23.320;2023-03-16T07:49:11;2.10;;;1.37;;
39788;SDS011;25478;42.626;23.320;2023-03-16T07:51:37;3.53;;;1.83;;
39788;SDS011;25478;42.626;23.320;2023-03-16T07:54:03;2.80;;;1.50;;
39788;SDS011;25478;42.626;23.320;2023-03-16T07:56:31;2.77;;;1.70;;
39788;SDS011;25478;42.626;23.320;2023-03-16T07:58:59;1.67;;;1.33;;
39788;SDS011;25478;42.626;23.320;2023-03-16T08:01:26;1.73;;;1.33;;
39788;SDS011;25478;42.626;23.320;2023-03-16T08:03:52;2.93;;;1.33;;
39788;SDS011;25478;42.626;23.320;2023-03-16T08:06:18;2.10;;;1.20;;
39788;SDS011;25478;42.626;23.320;2023-03-16T08:08:44;2.10;;;1.20;;
39788;SDS011;25478;42.626;23.320;2023-03-16T08:11:17;1.77;;;1.37;;
39788;SDS011;25478;42.626;23.320;2023-03-16T08:13:54;2.43;;;1.50;;
39788;SDS011;25478;42.626;23.320;2023-03-16T08:16:23;1.90;;;1.30;;
39788;SDS011;25478;42.626;23.320;2023-03-16T08:18:49;3.93;;;1.20;;
39788;SDS011;25478;42.626;23.320;2023-03-16T08:21:18;2.17;;;1.30;;
39788;SDS011;25478;42.626;23.320;2023-03-16T08:23:44;2.63;;;1.37;;
39788;SDS011;25478;42.626;23.320;2023-03-16T08:26:17;2.47;;;1.53;;
39788;SDS011;25478;42.626;23.320;2023-03-16T08:28:45;2.20;;;1.40;;
39788;SDS011;25478;42.626;23.320;2023-03-16T08:31:13;2.63;;;1.33;;
39788;SDS011;25478;42.626;23.320;2023-03-16T08:34:02;2.43;;;1.40;;
39788;SDS011;25478;42.626;23.320;2023-03-16T08:36:30;1.50;;;1.20;;
39788;SDS011;25478;42.626;23.320;2023-03-16T08:38:57;2.57;;;1.50;;
39788;SDS011;25478;42.626;23.320;2023-03-16T08:41:22;3.03;;;1.60;;
39788;SDS011;25478;42.626;23.320;2023-03-16T08:43:49;2.43;;;1.43;;
39788;SDS011;25478;42.626;23.320;2023-03-16T08:46:15;2.67;;;1.60;;
39788;SDS011;25478;42.626;23.320;2023-03-16T08:48:48;3.53;;;1.60;;
39788;SDS011;25478;42.626;23.320;2023-03-16T08:51:15;1.20;;;1.10;;
39788;SDS011;25478;42.626;23.320;2023-03-16T08:53:42;3.10;;;1.67;;
39788;SDS011;25478;42.626;23.320;2023-03-16T08:56:11;3.00;;;1.57;;
39788;SDS011;25478;42.626;23.320;2023-03-16T08:58:39;2.03;;;1.43;;
39788;SDS011;25478;42.626;23.320;2023-03-16T09:01:09;4.63;;;1.63;;
39788;SDS011;25478;42.626;23.320;2023-03-16T09:03:37;2.47;;;1.63;;
39788;SDS011;25478;42.626;23.320;2023-03-16T09:06:05;2.13;;;1.40;;
39788;SDS011;25478;42.626;23.320;2023-03-16T09:08:33;2.50;;;1.47;;
39788;SDS011;25478;42.626;23.320;2023-03-16T09:11:00;1.80;;;1.30;;
39788;SDS011;25478;42.626;23.320;2023-03-16T09:13:31;2.13;;;1.37;;
39788;SDS011;25478;42.626;23.320;2023-03-16T09:15:57;1.83;;;1.30;;
39788;SDS011;25478;42.626;23.320;2023-03-16T09:18:24;1.70;;;1.20;;
39788;SDS011;25478;42.626;23.320;2023-03-16T09:21:01;2.53;;;1.70;;
39788;SDS011;25478;42.626;23.320;2023-03-16T09:23:29;2.53;;;1.40;;
39788;SDS011;25478;42.626;23.320;2023-03-16T09:25:56;4.03;;;1.87;;
39788;SDS011;25478;42.626;23.320;2023-03-16T09:28:26;2.07;;;1.40;;
39788;SDS011;25478;42.626;23.320;2023-03-16T09:30:53;2.53;;;1.63;;
39788;SDS011;25478;42.626;23.320;2023-03-16T09:33:20;2.27;;;1.47;;
39788;SDS011;25478;42.626;23.320;2023-03-16T09:35:46;2.97;;;1.53;;
39788;SDS011;25478;42.626;23.320;2023-03-16T09:38:11;2.47;;;1.70;;
39788;SDS011;25478;42.626;23.320;2023-03-16T09:40:37;2.53;;;1.60;;
39788;SDS011;25478;42.626;23.320;2023-03-16T09:48:38;3.70;;;2.00;;
39788;SDS011;25478;42.626;23.320;2023-03-16T09:51:10;3.37;;;2.07;;
39788;SDS011;25478;42.626;23.320;2023-03-16T09:53:44;2.70;;;1.67;;
39788;SDS011;25478;42.626;23.320;2023-03-16T09:56:23;4.43;;;2.30;;
39788;SDS011;25478;42.626;23.320;2023-03-16T09:58:54;3.67;;;2.53;;
39788;SDS011;25478;42.626;23.320;2023-03-16T10:06:32;4.17;;;2.10;;
39788;SDS011;25478;42.626;23.320;2023-03-16T10:11:47;4.40;;;2.60;;
39788;SDS011;25478;42.626;23.320;2023-03-16T10:16:57;4.10;;;2.30;;
39788;SDS011;25478;42.626;23.320;2023-03-16T10:19:47;3.77;;;2.17;;
39788;SDS011;25478;42.626;23.320;2023-03-16T10:22:29;3.70;;;2.20;;
39788;SDS011;25478;42.626;23.320;2023-03-16T10:27:51;3.17;;;1.90;;
39788;SDS011;25478;42.626;23.320;2023-03-16T10:30:22;3.20;;;1.93;;
39788;SDS011;25478;42.626;23.320;2023-03-16T10:32:48;5.53;;;2.50;;
39788;SDS011;25478;42.626;23.320;2023-03-16T10:38:25;3.67;;;2.30;;
39788;SDS011;25478;42.626;23.320;2023-03-16T10:40:58;6.83;;;3.30;;
39788;SDS011;25478;42.626;23.320;2023-03-16T10:43:23;6.60;;;3.37;;
39788;SDS011;25478;42.626;23.320;2023-03-16T10:45:49;4.80;;;2.87;;
39788;SDS011;25478;42.626;23.320;2023-03-16T10:48:16;4.23;;;2.77;;
39788;SDS011;25478;42.626;23.320;2023-03-16T10:50:47;3.37;;;2.30;;
39788;SDS011;25478;42.626;23.320;2023-03-16T10:53:34;4.13;;;2.60;;
39788;SDS011;25478;42.626;23.320;2023-03-16T10:56:08;4.27;;;2.80;;
39788;SDS011;25478;42.626;23.320;2023-03-16T10:58:40;4.20;;;3.20;;
39788;SDS011;25478;42.626;23.320;2023-03-16T11:01:11;5.73;;;3.33;;
39788;SDS011;25478;42.626;23.320;2023-03-16T11:03:46;5.73;;;3.67;;
39788;SDS011;25478;42.626;23.320;2023-03-16T11:06:16;5.87;;;3.33;;
39788;SDS011;25478;42.626;23.320;2023-03-16T11:08:44;7.20;;;4.30;;
39788;SDS011;25478;42.626;23.320;2023-03-16T11:11:28;4.93;;;3.27;;
39788;SDS011;25478;42.626;23.320;2023-03-16T11:13:57;6.80;;;3.55;;
39788;SDS011;25478;42.626;23.320;2023-03-16T11:16:36;5.27;;;3.20;;
39788;SDS011;25478;42.626;23.320;2023-03-16T11:19:17;5.27;;;3.53;;
39788;SDS011;25478;42.626;23.320;2023-03-16T11:22:01;4.53;;;2.93;;
39788;SDS011;25478;42.626;23.320;2023-03-16T11:26:59;5.43;;;3.53;;
39788;SDS011;25478;42.626;23.320;2023-03-16T11:32:34;4.53;;;2.90;;
39788;SDS011;25478;42.626;23.320;2023-03-16T11:35:05;4.97;;;3.17;;
39788;SDS011;25478;42.626;23.320;2023-03-16T11:37:53;5.37;;;3.53;;
39788;SDS011;25478;42.626;23.320;2023-03-16T11:48:49;5.27;;;3.80;;
39788;SDS011;25478;42.626;23.320;2023-03-16T11:57:00;6.00;;;4.33;;
39788;SDS011;25478;42.626;23.320;2023-03-16T12:02:30;6.47;;;3.80;;
39788;SDS011;25478;42.626;23.320;2023-03-16T12:05:41;6.17;;;4.30;;
39788;SDS011;25478;42.626;23.320;2023-03-16T12:11:34;6.57;;;4.40;;
39788;SDS011;25478;42.626;23.320;2023-03-16T12:19:54;6.97;;;4.83;;
39788;SDS011;25478;42.626;23.320;2023-03-16T12:25:39;7.63;;;4.93;;
39788;SDS011;25478;42.626;23.320;2023-03-16T12:28:01;8.15;;;5.57;;
39788;SDS011;25478;42.626;23.320;2023-03-16T12:30:38;9.40;;;5.50;;
39788;SDS011;25478;42.626;23.320;2023-03-16T12:35:54;8.33;;;5.93;;
39788;SDS011;25478;42.626;23.320;2023-03-16T12:49:33;7.83;;;5.57;;
39788;SDS011;25478;42.626;23.320;2023-03-16T12:52:11;9.37;;;5.47;;
39788;SDS011;25478;42.626;23.320;2023-03-16T12:54:50;7.73;;;5.03;;
39788;SDS011;25478;42.626;23.320;2023-03-16T12:57:39;8.03;;;5.37;;
39788;SDS011;25478;42.626;23.320;2023-03-16T13:00:07;10.00;;;6.20;;
39788;SDS011;25478;42.626;23.320;2023-03-16T13:02:35;9.27;;;5.83;;
39788;SDS011;25478;42.626;23.320;2023-03-16T13:10:38;10.03;;;6.50;;
39788;SDS011;25478;42.626;23.320;2023-03-16T13:13:11;12.00;;;7.63;;
39788;SDS011;25478;42.626;23.320;2023-03-16T13:20:47;20.07;;;11.27;;
39788;SDS011;25478;42.626;23.320;2023-03-16T13:28:38;12.23;;;7.83;;
39788;SDS011;25478;42.626;23.320;2023-03-16T13:31:05;13.07;;;6.80;;
39788;SDS011;25478;42.626;23.320;2023-03-16T13:33:46;9.53;;;5.97;;
39788;SDS011;25478;42.626;23.320;2023-03-16T13:36:13;9.53;;;5.87;;
39788;SDS011;25478;42.626;23.320;2023-03-16T13:38:41;10.37;;;6.40;;
39788;SDS011;25478;42.626;23.320;2023-03-16T13:41:10;10.00;;;6.47;;
39788;SDS011;25478;42.626;23.320;2023-03-16T13:43:40;10.40;;;6.30;;
39788;SDS011;25478;42.626;23.320;2023-03-16T13:46:14;10.70;;;7.10;;
39788;SDS011;25478;42.626;23.320;2023-03-16T13:48:48;15.20;;;9.20;;
39788;SDS011;25478;42.626;23.320;2023-03-16T13:51:18;16.07;;;9.00;;
39788;SDS011;25478;42.626;23.320;2023-03-16T13:53:45;15.10;;;9.20;;
39788;SDS011;25478;42.626;23.320;2023-03-16T13:56:16;16.20;;;9.53;;
39788;SDS011;25478;42.626;23.320;2023-03-16T13:58:49;16.77;;;9.30;;
39788;SDS011;25478;42.626;23.320;2023-03-16T14:01:26;16.93;;;10.30;;
39788;SDS011;25478;42.626;23.320;2023-03-16T14:04:00;14.83;;;9.53;;
39788;SDS011;25478;42.626;23.320;2023-03-16T14:06:32;19.60;;;11.53;;
39788;SDS011;25478;42.626;23.320;2023-03-16T14:09:05;17.23;;;10.80;;
39788;SDS011;25478;42.626;23.320;2023-03-16T14:11:38;15.07;;;10.33;;
39788;SDS011;25478;42.626;23.320;2023-03-16T14:14:12;17.53;;;10.43;;
39788;SDS011;25478;42.626;23.320;2023-03-16T14:16:42;17.77;;;10.90;;
39788;SDS011;25478;42.626;23.320;2023-03-16T14:19:15;17.13;;;10.53;;
39788;SDS011;25478;42.626;23.320;2023-03-16T14:21:44;19.00;;;11.53;;
39788;SDS011;25478;42.626;23.320;2023-03-16T14:24:53;17.97;;;11.10;;
39788;SDS011;25478;42.626;23.320;2023-03-16T14:27:19;20.37;;;11.47;;
39788;SDS011;25478;42.626;23.320;2023-03-16T14:30:32;16.70;;;10.43;;
39788;SDS011;25478;42.626;23.320;2023-03-16T14:33:03;16.47;;;9.70;;
39788;SDS011;25478;42.626;23.320;2023-03-16T14:35:32;16.67;;;10.47;;
39788;SDS011;25478;42.626;23.320;2023-03-16T14:41:04;18.57;;;10.70;;
39788;SDS011;25478;42.626;23.320;2023-03-16T14:43:37;16.07;;;10.50;;
39788;SDS011;25478;42.626;23.320;2023-03-16T14:46:10;19.50;;;11.50;;
39788;SDS011;25478;42.626;23.320;2023-03-16T14:48:39;21.13;;;12.20;;
39788;SDS011;25478;42.626;23.320;2023-03-16T14:51:05;21.53;;;12.37;;
39788;SDS011;25478;42.626;23.320;2023-03-16T14:53:37;20.70;;;12.47;;
39788;SDS011;25478;42.626;23.320;2023-03-16T14:56:03;19.67;;;11.40;;
39788;SDS011;25478;42.626;23.320;2023-03-16T14:58:34;19.27;;;11.50;;
39788;SDS011;25478;42.626;23.320;2023-03-16T15:01:00;20.73;;;12.37;;
39788;SDS011;25478;42.626;23.320;2023-03-16T15:03:29;22.97;;;12.50;;
39788;SDS011;25478;42.626;23.320;2023-03-16T15:05:57;24.47;;;13.20;;
39788;SDS011;25478;42.626;23.320;2023-03-16T15:08:24;26.10;;;13.87;;
39788;SDS011;25478;42.626;23.320;2023-03-16T15:10:56;20.27;;;11.33;;
39788;SDS011;25478;42.626;23.320;2023-03-16T15:13:25;18.70;;;11.83;;
39788;SDS011;25478;42.626;23.320;2023-03-16T15:16:17;21.87;;;12.43;;
39788;SDS011;25478;42.626;23.320;2023-03-16T15:18:44;22.00;;;13.13;;
39788;SDS011;25478;42.626;23.320;2023-03-16T15:21:10;25.10;;;13.13;;
39788;SDS011;25478;42.626;23.320;2023-03-16T15:23:41;24.13;;;13.70;;
39788;SDS011;25478;42.626;23.320;2023-03-16T15:26:14;24.37;;;13.20;;
39788;SDS011;25478;42.626;23.320;2023-03-16T15:28:43;23.43;;;13.33;;
39788;SDS011;25478;42.626;23.320;2023-03-16T15:31:09;26.00;;;14.97;;
39788;SDS011;25478;42.626;23.320;2023-03-16T15:33:37;23.13;;;13.80;;
39788;SDS011;25478;42.626;23.320;2023-03-16T15:36:09;18.77;;;12.17;;
39788;SDS011;25478;42.626;23.320;2023-03-16T15:38:45;21.40;;;12.83;;
39788;SDS011;25478;42.626;23.320;2023-03-16T15:41:12;19.33;;;11.27;;
39788;SDS011;25478;42.626;23.320;2023-03-16T15:43:38;17.90;;;10.30;;
39788;SDS011;25478;42.626;23.320;2023-03-16T15:46:04;18.63;;;9.87;;
39788;SDS011;25478;42.626;23.320;2023-03-16T15:48:30;18.10;;;11.07;;
39788;SDS011;25478;42.626;23.320;2023-03-16T15:50:58;19.40;;;10.93;;
39788;SDS011;25478;42.626;23.320;2023-03-16T15:53:31;19.80;;;10.07;;
39788;SDS011;25478;42.626;23.320;2023-03-16T15:56:02;17.30;;;9.77;;
39788;SDS011;25478;42.626;23.320;2023-03-16T15:58:30;18.10;;;11.17;;
39788;SDS011;25478;42.626;23.320;2023-03-16T16:00:58;15.77;;;10.23;;
39788;SDS011;25478;42.626;23.320;2023-03-16T16:03:25;18.63;;;10.87;;
39788;SDS011;25478;42.626;23.320;2023-03-16T16:05:52;20.63;;;10.93;;
39788;SDS011;25478;42.626;23.320;2023-03-16T16:08:18;21.90;;;11.67;;
39788;SDS011;25478;42.626;23.320;2023-03-16T16:10:44;18.10;;;10.57;;
39788;SDS011;25478;42.626;23.320;2023-03-16T16:13:32;19.80;;;11.43;;
39788;SDS011;25478;42.626;23.320;2023-03-16T16:15:57;16.17;;;9.87;;
39788;SDS011;25478;42.626;23.320;2023-03-16T16:18:30;15.70;;;10.07;;
39788;SDS011;25478;42.626;23.320;2023-03-16T16:21:00;17.20;;;10.20;;
39788;SDS011;25478;42.626;23.320;2023-03-16T16:23:27;16.47;;;9.63;;
39788;SDS011;25478;42.626;23.320;2023-03-16T16:25:54;16.97;;;10.20;;